Aviation Digital Data Service (ADDS)

Output produced by METARs form (1348 UTC 26 November 2014)
found at http://aviationweather.gov/adds/metars/
 
KCON 261124Z 2612/2712 VRB03KT P6SM OVC120 
     FM261700 01008KT 2SM -SN BR OVC015 
     FM262000 36011KT 1/4SM +SN FZFG VV003 
     FM270300 34014G26KT 2SM -SN BLSN BR OVC008 
     FM270800 33011KT 5SM -SHSN BR OVC020